createdAt,value
2019-04-22T00:02:20.903Z,8.07
2019-04-22T00:05:01.186Z,8.07
2019-04-22T00:07:43.279Z,8.02
2019-04-22T00:10:19.372Z,8.05
2019-04-22T00:12:47.290Z,8.07
2019-04-22T00:15:10.168Z,7.99
2019-04-22T00:17:55.300Z,7.95
2019-04-22T00:20:14.320Z,7.89
2019-04-22T00:22:44.679Z,7.84
2019-04-22T00:27:57.538Z,7.72
2019-04-22T00:30:20.920Z,7.74
2019-04-22T00:33:03.277Z,7.58
2019-04-22T00:35:36.679Z,7.63
2019-04-22T00:38:14.359Z,7.55
2019-04-22T00:40:41.161Z,7.55
2019-04-22T00:43:04.946Z,7.43
2019-04-22T00:45:38.929Z,7.48
2019-04-22T00:48:16.440Z,7.48
2019-04-22T00:53:20.131Z,7.28
2019-04-22T00:55:46.354Z,7.18
2019-04-22T00:58:22.761Z,7.17
2019-04-22T01:00:49.320Z,7.16
2019-04-22T01:03:19.957Z,7.15
2019-04-22T01:05:46.623Z,7.16
2019-04-22T01:08:21.093Z,7.11
2019-04-22T01:10:50.038Z,6.97
2019-04-22T01:13:21.721Z,6.97
2019-04-22T01:15:47.613Z,7.01
2019-04-22T01:18:21.028Z,7.02
2019-04-22T01:21:11.234Z,6.93
2019-04-22T01:23:23.713Z,6.93
2019-04-22T01:25:55.242Z,6.89
2019-04-22T01:28:18.051Z,6.92
2019-04-22T01:30:49.233Z,6.90
2019-04-22T01:33:16.063Z,6.90
2019-04-22T01:36:04.324Z,6.94
2019-04-22T01:38:31.605Z,6.94
2019-04-22T01:41:07.145Z,6.82
2019-04-22T01:43:50.329Z,6.82
2019-04-22T01:46:07.902Z,6.82
2019-04-22T01:48:39.535Z,6.81
2019-04-22T01:51:01.336Z,6.78
2019-04-22T01:53:44.951Z,6.65
2019-04-22T01:56:08.350Z,6.65
2019-04-22T01:58:36.227Z,6.56
2019-04-22T02:01:09.744Z,6.51
2019-04-22T02:03:40.072Z,6.51
2019-04-22T02:06:17.227Z,6.47
2019-04-22T02:08:44.891Z,6.58
2019-04-22T02:11:24.111Z,6.50
2019-04-22T02:13:44.805Z,6.40
2019-04-22T02:16:15.192Z,6.40
2019-04-22T02:18:44.253Z,6.60
2019-04-22T02:21:07.300Z,6.52
2019-04-22T02:23:47.161Z,6.40
2019-04-22T02:26:23.790Z,6.27
2019-04-22T02:28:58.098Z,6.21
2019-04-22T02:34:11.488Z,6.30
2019-04-22T02:36:22.670Z,6.26
2019-04-22T02:38:58.788Z,6.26
2019-04-22T02:41:26.610Z,6.30
2019-04-22T02:46:34.870Z,6.18
2019-04-22T03:06:33.515Z,5.96
2019-04-22T03:08:59.642Z,5.96
2019-04-22T03:14:46.144Z,6.12
2019-04-22T03:21:27.975Z,5.98
2019-04-22T03:26:32.044Z,5.93
2019-04-22T03:28:57.178Z,5.92
2019-04-22T03:34:54.755Z,5.96
2019-04-22T03:39:28.044Z,5.90
2019-04-22T03:41:57.315Z,5.85
2019-04-22T03:44:28.182Z,5.89
2019-04-22T03:46:53.199Z,5.71
2019-04-22T03:54:29.642Z,5.63
2019-04-22T03:57:17.708Z,5.59
2019-04-22T03:59:33.783Z,5.58
2019-04-22T04:04:30.425Z,5.43
2019-04-22T04:06:59.663Z,5.29
2019-04-22T04:09:27.036Z,5.25
2019-04-22T04:14:32.205Z,5.31
2019-04-22T04:19:24.660Z,5.28
2019-04-22T04:24:34.387Z,5.33
2019-04-22T04:26:54.913Z,5.19
2019-04-22T04:29:36.178Z,5.13
2019-04-22T04:31:58.824Z,5.13
2019-04-22T04:34:28.314Z,5.13
2019-04-22T04:37:18.674Z,5.13
2019-04-22T04:39:26.807Z,5.13
2019-04-22T04:42:07.376Z,5.19
2019-04-22T04:44:34.325Z,5.20
2019-04-22T04:49:24.276Z,5.38
2019-04-22T04:51:56.137Z,5.32
2019-04-22T04:57:11.280Z,5.44
2019-04-22T05:01:55.586Z,5.75
2019-04-22T05:04:37.161Z,5.82
2019-04-22T05:12:12.800Z,5.92
2019-04-22T05:14:28.583Z,6.05
2019-04-22T05:17:10.533Z,6.19
2019-04-22T05:19:37.702Z,6.19
2019-04-22T05:21:58.173Z,6.39
2019-04-22T05:27:10.850Z,6.45
2019-04-22T05:31:57.015Z,6.60
2019-04-22T05:34:28.137Z,6.56
2019-04-22T05:37:00.687Z,6.69
2019-04-22T05:39:42.458Z,6.69
2019-04-22T05:42:03.915Z,6.83
2019-04-22T05:44:29.498Z,6.83
2019-04-22T05:47:02.698Z,6.92
2019-04-22T05:49:28.766Z,7.10
2019-04-22T05:51:55.000Z,7.32
2019-04-22T05:57:02.029Z,7.64
2019-04-22T05:59:32.189Z,7.79
2019-04-22T06:02:05.385Z,7.79
2019-04-22T06:04:29.700Z,8.00
2019-04-22T06:07:02.060Z,8.19
2019-04-22T06:09:36.819Z,8.35
2019-04-22T06:11:58.886Z,8.56
2019-04-22T06:14:40.363Z,8.76
2019-04-22T06:17:12.390Z,8.87
2019-04-22T06:19:44.571Z,8.98
2019-04-22T06:22:25.362Z,9.23
2019-04-22T06:24:43.696Z,9.38
2019-04-22T06:27:15.463Z,9.63
2019-04-22T06:29:41.880Z,9.83
2019-04-22T06:34:45.207Z,10.30
2019-04-22T06:37:18.614Z,10.43
2019-04-22T06:39:45.084Z,10.62
2019-04-22T06:42:17.546Z,10.74
2019-04-22T06:44:47.856Z,11.00
2019-04-22T06:47:38.304Z,11.12
2019-04-22T06:49:48.234Z,11.19
2019-04-22T06:54:48.900Z,11.48
2019-04-22T06:57:30.930Z,11.58
2019-04-22T07:00:08.313Z,11.80
2019-04-22T07:02:23.952Z,11.82
2019-04-22T07:04:49.448Z,11.93
2019-04-22T07:07:21.630Z,12.05
2019-04-22T07:09:54.421Z,12.16
2019-04-22T07:12:24.348Z,12.32
2019-04-22T07:14:54.572Z,12.47
2019-04-22T07:17:22.140Z,12.56
2019-04-22T07:19:51.153Z,12.74
2019-04-22T07:22:26.146Z,12.78
2019-04-22T07:24:55.831Z,12.92
2019-04-22T07:27:22.158Z,12.80
2019-04-22T07:30:06.309Z,12.86
2019-04-22T07:32:40.105Z,12.92
2019-04-22T07:35:01.069Z,13.04
2019-04-22T07:39:50.248Z,13.16
2019-04-22T07:44:59.206Z,13.41
2019-04-22T07:47:34.141Z,13.55
2019-04-22T07:50:03.079Z,13.61
2019-04-22T07:52:27.366Z,13.67
2019-04-22T07:54:56.846Z,13.67
2019-04-22T08:00:05.481Z,13.79
2019-04-22T08:02:31.801Z,13.67
2019-04-22T08:05:05.441Z,13.79
2019-04-22T08:07:29.752Z,13.80
2019-04-22T08:10:12.499Z,13.96
2019-04-22T08:12:36.315Z,13.86
2019-04-22T08:14:59.830Z,14.14
2019-04-22T08:17:51.811Z,14.18
2019-04-22T08:20:09.244Z,14.20
2019-04-22T08:22:39.814Z,14.29
2019-04-22T08:25:03.221Z,14.28
2019-04-22T08:27:35.585Z,14.27
2019-04-22T08:30:14.337Z,14.49
2019-04-22T08:32:34.977Z,14.57
2019-04-22T08:35:11.258Z,14.30
2019-04-22T08:37:50.749Z,14.45
2019-04-22T08:40:12.487Z,14.45
2019-04-22T08:42:43.413Z,14.39
2019-04-22T08:47:36.254Z,14.74
2019-04-22T08:50:12.282Z,14.75
2019-04-22T08:52:58.643Z,14.90
2019-04-22T08:55:14.340Z,14.95
2019-04-22T09:00:07.146Z,15.59
2019-04-22T09:05:20.432Z,15.49
2019-04-22T09:10:15.179Z,15.54
2019-04-22T09:12:57.959Z,15.71
2019-04-22T09:15:16.641Z,15.51
2019-04-22T09:17:42.257Z,15.52
2019-04-22T09:20:13.139Z,15.68
2019-04-22T09:22:41.150Z,15.92
2019-04-22T09:25:06.613Z,15.96
2019-04-22T09:27:48.383Z,16.06
2019-04-22T09:30:13.169Z,16.14
2019-04-22T09:32:44.945Z,16.31
2019-04-22T09:35:15.872Z,16.11
2019-04-22T09:37:55.866Z,16.27
2019-04-22T09:40:15.628Z,16.23
2019-04-22T09:45:19.654Z,16.74
2019-04-22T09:50:22.623Z,16.79
2019-04-22T09:52:51.601Z,16.70
2019-04-22T09:55:18.250Z,16.58
2019-04-22T09:57:50.947Z,16.73
2019-04-22T10:02:57.616Z,17.02
2019-04-22T10:05:20.998Z,17.04
2019-04-22T10:07:54.380Z,16.90
2019-04-22T10:10:20.465Z,17.25
2019-04-22T10:12:52.242Z,17.35
2019-04-22T10:15:23.300Z,17.24
2019-04-22T10:18:14.048Z,17.32
2019-04-22T10:20:27.085Z,17.31
2019-04-22T10:22:53.209Z,17.41
2019-04-22T10:25:23.202Z,17.54
2019-04-22T10:27:55.241Z,17.38
2019-04-22T10:30:35.930Z,17.49
2019-04-22T10:32:52.433Z,17.81
2019-04-22T10:35:15.434Z,18.10
2019-04-22T10:37:42.575Z,18.41
2019-04-22T10:40:32.388Z,18.15
2019-04-22T10:43:01.303Z,18.15
2019-04-22T10:45:30.359Z,17.82
2019-04-22T10:48:01.369Z,17.98
2019-04-22T10:50:41.119Z,18.14
2019-04-22T10:53:11.213Z,18.37
2019-04-22T10:55:43.371Z,18.27
2019-04-22T10:58:12.716Z,18.25
2019-04-22T11:00:42.038Z,18.47
2019-04-22T11:03:13.912Z,18.62
2019-04-22T11:05:44.288Z,18.69
2019-04-22T11:08:22.624Z,18.65
2019-04-22T11:11:00.692Z,18.49
2019-04-22T11:13:15.797Z,18.55
2019-04-22T11:15:44.666Z,18.49
2019-04-22T11:18:14.006Z,18.82
2019-04-22T11:20:43.895Z,18.73
2019-04-22T11:23:12.666Z,18.59
2019-04-22T11:25:41.622Z,18.68
2019-04-22T11:28:11.756Z,18.75
2019-04-22T11:30:40.849Z,18.99
2019-04-22T11:33:09.572Z,19.12
2019-04-22T11:35:39.486Z,18.99
2019-04-22T11:38:08.818Z,19.03
2019-04-22T11:40:40.334Z,19.31
2019-04-22T11:43:08.052Z,19.05
2019-04-22T11:45:37.355Z,19.25
2019-04-22T11:48:06.218Z,19.15
2019-04-22T11:50:35.754Z,19.39
2019-04-22T11:53:04.853Z,19.45
2019-04-22T11:55:34.896Z,19.28
2019-04-22T11:58:03.937Z,19.16
2019-04-22T12:00:34.966Z,19.39
2019-04-22T12:03:05.182Z,19.30
2019-04-22T12:05:34.377Z,19.22
2019-04-22T12:08:03.061Z,19.35
2019-04-22T12:10:40.238Z,19.10
2019-04-22T12:13:03.944Z,19.38
2019-04-22T12:15:33.015Z,19.31
2019-04-22T12:18:01.537Z,19.18
2019-04-22T12:20:30.089Z,19.08
2019-04-22T12:22:58.955Z,19.07
2019-04-22T12:25:34.723Z,19.06
2019-04-22T12:27:59.209Z,19.15
2019-04-22T12:30:28.156Z,19.21
2019-04-22T12:32:58.037Z,18.99
2019-04-22T12:35:28.287Z,18.92
2019-04-22T12:38:01.259Z,18.94
2019-04-22T12:40:38.267Z,18.71
2019-04-22T12:42:57.870Z,18.72
2019-04-22T12:45:26.739Z,18.85
2019-04-22T12:47:56.020Z,18.88
2019-04-22T12:50:31.546Z,18.83
2019-04-22T12:53:01.275Z,18.67
2019-04-22T12:55:27.961Z,18.90
2019-04-22T12:57:58.656Z,18.93
2019-04-22T13:00:27.424Z,18.88
2019-04-22T13:02:56.830Z,18.93
2019-04-22T13:05:27.065Z,18.78
2019-04-22T13:07:57.819Z,18.79
2019-04-22T13:10:39.103Z,18.91
2019-04-22T13:12:58.641Z,18.68
2019-04-22T13:15:28.905Z,18.79
2019-04-22T13:18:06.058Z,18.73
2019-04-22T13:20:28.286Z,18.85
2019-04-22T13:22:57.090Z,18.89
2019-04-22T13:25:29.964Z,18.89
2019-04-22T13:27:57.663Z,18.88
2019-04-22T13:30:28.407Z,19.05
2019-04-22T13:32:57.115Z,18.97
2019-04-22T13:35:28.042Z,18.90
2019-04-22T13:37:57.422Z,18.70
2019-04-22T13:40:26.646Z,18.71
2019-04-22T13:42:58.716Z,18.49
2019-04-22T13:45:27.845Z,18.37
2019-04-22T13:48:14.630Z,18.25
2019-04-22T13:51:00.877Z,18.13
2019-04-22T13:53:42.815Z,18.11
2019-04-22T13:55:56.926Z,17.95
2019-04-22T13:58:14.665Z,17.87
2019-04-22T14:00:34.429Z,17.91
2019-04-22T14:03:20.518Z,17.80
2019-04-22T14:05:50.940Z,17.87
2019-04-22T14:08:20.014Z,17.89
2019-04-22T14:10:50.195Z,17.86
2019-04-22T14:13:19.628Z,17.85
2019-04-22T14:15:48.761Z,18.22
2019-04-22T14:18:18.969Z,18.11
2019-04-22T14:20:49.025Z,17.78
2019-04-22T14:23:17.754Z,17.64
2019-04-22T14:25:46.473Z,17.75
2019-04-22T14:28:17.976Z,18.00
2019-04-22T14:30:46.373Z,18.10
2019-04-22T14:33:16.128Z,17.98
2019-04-22T14:35:45.773Z,18.02
2019-04-22T14:38:14.475Z,18.39
2019-04-22T14:40:45.322Z,18.45
2019-04-22T14:43:40.417Z,18.45
2019-04-22T14:46:19.276Z,18.28
2019-04-22T14:48:41.620Z,17.97
2019-04-22T14:51:00.633Z,17.51
2019-04-22T14:53:35.508Z,17.58
2019-04-22T14:55:46.512Z,17.64
2019-04-22T14:58:15.265Z,17.87
2019-04-22T15:00:45.714Z,18.15
2019-04-22T15:03:15.582Z,18.47
2019-04-22T15:05:44.344Z,18.48
2019-04-22T15:08:13.306Z,18.68
2019-04-22T15:10:42.341Z,18.93
2019-04-22T15:13:11.546Z,19.09
2019-04-22T15:16:03.011Z,19.28
2019-04-22T15:18:35.635Z,19.31
2019-04-22T15:21:11.893Z,19.87
2019-04-22T15:23:40.546Z,19.81
2019-04-22T15:26:10.494Z,19.51
2019-04-22T15:28:39.595Z,19.49
2019-04-22T15:31:09.125Z,19.08
2019-04-22T15:33:39.238Z,19.39
2019-04-22T15:36:09.885Z,19.38
2019-04-22T15:38:38.721Z,19.45
2019-04-22T15:41:07.352Z,19.08
2019-04-22T15:43:37.162Z,19.31
2019-04-22T15:46:05.886Z,19.18
2019-04-22T15:48:35.991Z,18.92
2019-04-22T15:51:05.017Z,18.69
2019-04-22T15:53:33.915Z,18.50
2019-04-22T15:56:03.072Z,18.39
2019-04-22T15:58:33.326Z,18.08
2019-04-22T16:01:12.686Z,17.86
2019-04-22T16:03:34.316Z,17.75
2019-04-22T16:06:03.988Z,17.79
2019-04-22T16:08:35.965Z,17.47
2019-04-22T16:11:04.090Z,17.23
2019-04-22T16:13:36.092Z,17.00
2019-04-22T16:16:03.118Z,16.61
2019-04-22T16:18:33.150Z,16.59
2019-04-22T16:21:02.911Z,16.40
2019-04-22T16:23:34.112Z,16.42
2019-04-22T16:26:07.793Z,16.26
2019-04-22T16:28:37.771Z,16.26
2019-04-22T16:31:07.235Z,16.21
2019-04-22T16:33:39.798Z,16.20
2019-04-22T16:36:07.240Z,16.19
2019-04-22T16:38:37.281Z,16.05
2019-04-22T16:41:06.722Z,15.98
2019-04-22T16:43:36.457Z,15.93
2019-04-22T16:46:05.736Z,15.84
2019-04-22T16:48:35.845Z,15.70
2019-04-22T16:51:06.208Z,15.65
2019-04-22T16:53:35.138Z,15.67
2019-04-22T16:56:04.771Z,15.57
2019-04-22T16:58:34.628Z,15.53
2019-04-22T17:01:05.136Z,15.46
2019-04-22T17:03:52.355Z,15.43
2019-04-22T17:06:23.424Z,15.30
2019-04-22T17:08:52.898Z,15.20
2019-04-22T17:11:22.141Z,15.16
2019-04-22T17:13:50.896Z,15.08
2019-04-22T17:16:20.218Z,15.06
2019-04-22T17:18:50.051Z,15.02
2019-04-22T17:21:19.655Z,15.02
2019-04-22T17:23:49.887Z,14.96
2019-04-22T17:26:18.865Z,14.96
2019-04-22T17:28:47.542Z,14.83
2019-04-22T17:31:16.566Z,14.81
2019-04-22T17:33:46.594Z,14.81
2019-04-22T17:36:16.369Z,14.78
2019-04-22T17:38:54.334Z,14.67
2019-04-22T17:41:26.665Z,14.64
2019-04-22T17:44:15.296Z,14.55
2019-04-22T17:46:41.713Z,14.49
2019-04-22T17:49:25.510Z,14.42
2019-04-22T17:52:15.633Z,14.43
2019-04-22T17:54:42.082Z,14.37
2019-04-22T17:57:12.326Z,14.30
2019-04-22T17:59:39.301Z,14.25
2019-04-22T18:02:08.611Z,14.15
2019-04-22T18:04:20.643Z,14.11
2019-04-22T18:07:19.158Z,14.05
2019-04-22T18:10:10.763Z,13.98
2019-04-22T18:12:20.517Z,13.91
2019-04-22T18:17:10.982Z,13.71
2019-04-22T18:19:39.931Z,13.62
2019-04-22T18:22:07.614Z,13.58
2019-04-22T18:24:32.662Z,13.60
2019-04-22T18:27:31.901Z,13.53
2019-04-22T18:29:43.515Z,13.50
2019-04-22T18:32:08.766Z,13.44
2019-04-22T18:34:42.895Z,13.34
2019-04-22T18:37:12.825Z,13.37
2019-04-22T18:39:52.801Z,13.26
2019-04-22T18:42:19.331Z,13.14
2019-04-22T18:44:55.318Z,13.10
2019-04-22T18:47:17.137Z,13.03
2019-04-22T18:49:46.097Z,13.00
2019-04-22T18:52:28.137Z,12.89
2019-04-22T18:55:03.909Z,12.75
2019-04-22T18:57:35.795Z,12.78
2019-04-22T18:59:52.122Z,12.61
2019-04-22T19:02:22.916Z,12.48
2019-04-22T19:04:56.116Z,12.38
2019-04-22T19:07:42.516Z,12.31
2019-04-22T19:10:23.608Z,12.32
2019-04-22T19:12:54.094Z,12.32
2019-04-22T19:15:16.350Z,12.33
2019-04-22T19:17:47.713Z,12.37
2019-04-22T19:20:15.900Z,12.20
2019-04-22T19:22:45.806Z,12.12
2019-04-22T19:25:05.892Z,12.14
2019-04-22T19:27:42.160Z,12.23
2019-04-22T19:30:16.381Z,12.22
2019-04-22T19:32:43.071Z,12.10
2019-04-22T19:35:14.171Z,12.04
2019-04-22T19:37:42.506Z,12.08
2019-04-22T19:40:24.312Z,12.01
2019-04-22T19:43:00.544Z,11.98
2019-04-22T19:45:17.633Z,12.00
2019-04-22T19:47:59.753Z,11.91
2019-04-22T19:50:24.487Z,11.82
2019-04-22T19:52:56.648Z,11.71
2019-04-22T19:55:23.422Z,11.64
2019-04-22T19:57:50.991Z,11.58
2019-04-22T20:00:19.608Z,11.62
2019-04-22T20:03:18.157Z,11.63
2019-04-22T20:05:50.569Z,11.58
2019-04-22T20:08:21.514Z,11.55
2019-04-22T20:10:51.123Z,11.48
2019-04-22T20:13:24.314Z,11.45
2019-04-22T20:15:43.297Z,11.57
2019-04-22T20:18:40.446Z,11.48
2019-04-22T20:20:59.657Z,11.54
2019-04-22T20:23:16.797Z,11.51
2019-04-22T20:25:48.681Z,11.34
2019-04-22T20:28:25.945Z,11.49
2019-04-22T20:30:50.482Z,11.37
2019-04-22T20:33:29.138Z,11.39
2019-04-22T20:36:01.457Z,11.32
2019-04-22T20:38:24.853Z,11.41
2019-04-22T20:40:55.041Z,11.36
2019-04-22T20:43:29.215Z,11.42
2019-04-22T20:46:00.594Z,11.56
2019-04-22T20:48:15.838Z,11.65
2019-04-22T20:51:02.586Z,11.62
2019-04-22T20:53:31.217Z,11.64
2019-04-22T20:56:00.718Z,11.70
2019-04-22T20:58:28.326Z,11.72
2019-04-22T21:00:53.383Z,11.64
2019-04-22T21:03:22.310Z,11.62
2019-04-22T21:05:51.871Z,11.78
2019-04-22T21:08:33.365Z,11.82
2019-04-22T21:10:53.473Z,11.97
2019-04-22T21:13:22.890Z,12.07
2019-04-22T21:16:05.332Z,12.07
2019-04-22T21:18:27.814Z,12.19
2019-04-22T21:21:02.321Z,12.12
2019-04-22T21:23:30.078Z,12.24
2019-04-22T21:26:02.379Z,12.19
2019-04-22T21:28:34.218Z,12.27
2019-04-22T21:31:01.584Z,12.27
2019-04-22T21:33:27.027Z,12.37
2019-04-22T21:36:14.233Z,12.47
2019-04-22T21:38:37.500Z,12.43
2019-04-22T21:41:08.413Z,12.33
2019-04-22T21:43:39.797Z,12.34
2019-04-22T21:46:09.109Z,12.37
2019-04-22T21:48:54.386Z,12.40
2019-04-22T21:51:11.170Z,12.38
2019-04-22T21:53:43.508Z,12.43
2019-04-22T21:56:25.370Z,12.53
2019-04-22T21:58:53.199Z,12.56
2019-04-22T22:03:54.908Z,12.44
2019-04-22T22:06:19.040Z,12.39
2019-04-22T22:08:57.855Z,12.47
2019-04-22T22:11:27.691Z,12.42
2019-04-22T22:13:59.461Z,12.37
2019-04-22T22:16:24.928Z,12.34
2019-04-22T22:19:00.910Z,12.31
2019-04-22T22:24:04.289Z,12.24
2019-04-22T22:26:26.385Z,12.27
2019-04-22T22:29:05.291Z,12.39
2019-04-22T22:31:36.674Z,12.30
2019-04-22T22:34:04.088Z,12.30
2019-04-22T22:36:23.663Z,12.32
2019-04-22T22:38:52.989Z,12.27
2019-04-22T22:41:11.966Z,12.22
2019-04-22T22:43:45.362Z,12.21
2019-04-22T22:46:22.807Z,12.17
2019-04-22T22:49:05.120Z,12.17
2019-04-22T22:51:40.303Z,12.19
2019-04-22T22:54:03.806Z,12.31
2019-04-22T22:56:42.233Z,12.31
2019-04-22T22:59:03.071Z,12.22
2019-04-22T23:01:35.998Z,12.16
2019-04-22T23:04:09.238Z,12.23
2019-04-22T23:06:40.629Z,12.16
2019-04-22T23:09:04.088Z,12.24
2019-04-22T23:11:52.283Z,12.19
2019-04-22T23:14:07.573Z,12.11
2019-04-22T23:16:25.182Z,12.07
2019-04-22T23:19:07.420Z,12.08
2019-04-22T23:21:43.539Z,12.04
2019-04-22T23:24:26.473Z,11.99
2019-04-22T23:27:07.108Z,12.02
2019-04-22T23:29:36.652Z,12.02
2019-04-22T23:32:09.190Z,11.98
2019-04-22T23:34:44.497Z,12.02
2019-04-22T23:37:21.963Z,11.89
2019-04-22T23:40:08.164Z,11.83
2019-04-22T23:42:27.004Z,11.78
2019-04-22T23:44:56.617Z,11.79
2019-04-22T23:47:26.491Z,11.80
2019-04-22T23:50:01.186Z,11.81
2019-04-22T23:52:35.766Z,11.77
2019-04-22T23:55:08.817Z,11.75
2019-04-22T23:57:55.789Z,11.69
